sensor_id;sensor_type;location;lat;lon;timestamp;pressure;altitude;pressure_sealevel;temperature;humidity
42105;BME280;61464;51.472;5.712;2022-08-21T00:00:17;101582.69;;;13.18;100.00
42105;BME280;61464;51.472;5.712;2022-08-21T00:02:55;101574.53;;;13.13;100.00
42105;BME280;61464;51.472;5.712;2022-08-21T00:05:23;101591.97;;;13.20;100.00
42105;BME280;61464;51.472;5.712;2022-08-21T00:07:49;101581.50;;;13.12;100.00
42105;BME280;61464;51.472;5.712;2022-08-21T00:10:15;101589.22;;;13.22;100.00
42105;BME280;61464;51.472;5.712;2022-08-21T00:12:41;101573.25;;;13.17;100.00
42105;BME280;61464;51.472;5.712;2022-08-21T00:15:10;101580.50;;;13.05;100.00
42105;BME280;61464;51.472;5.712;2022-08-21T00:17:36;101573.97;;;13.01;100.00
42105;BME280;61464;51.472;5.712;2022-08-21T00:20:06;101574.13;;;12.99;100.00
42105;BME280;61464;51.472;5.712;2022-08-21T00:22:35;101574.88;;;12.92;100.00
42105;BME280;61464;51.472;5.712;2022-08-21T00:25:01;101562.88;;;12.99;100.00
42105;BME280;61464;51.472;5.712;2022-08-21T00:27:28;101570.84;;;12.97;100.00
42105;BME280;61464;51.472;5.712;2022-08-21T00:29:53;101566.75;;;12.95;100.00
42105;BME280;61464;51.472;5.712;2022-08-21T00:32:23;101561.69;;;12.93;100.00
42105;BME280;61464;51.472;5.712;2022-08-21T00:34:50;101560.97;;;13.09;100.00
42105;BME280;61464;51.472;5.712;2022-08-21T00:37:16;101551.53;;;13.16;100.00
42105;BME280;61464;51.472;5.712;2022-08-21T00:39:42;101558.78;;;12.96;100.00
42105;BME280;61464;51.472;5.712;2022-08-21T00:42:09;101553.50;;;12.80;100.00
42105;BME280;61464;51.472;5.712;2022-08-21T00:44:35;101546.47;;;12.80;100.00
42105;BME280;61464;51.472;5.712;2022-08-21T00:47:01;101557.06;;;12.79;100.00
42105;BME280;61464;51.472;5.712;2022-08-21T00:49:27;101555.44;;;12.78;100.00
42105;BME280;61464;51.472;5.712;2022-08-21T00:51:59;101538.63;;;12.72;100.00
42105;BME280;61464;51.472;5.712;2022-08-21T00:54:28;101543.81;;;12.72;100.00
42105;BME280;61464;51.472;5.712;2022-08-21T00:57:00;101552.81;;;12.78;100.00
42105;BME280;61464;51.472;5.712;2022-08-21T00:59:28;101544.44;;;12.66;100.00
42105;BME280;61464;51.472;5.712;2022-08-21T01:01:56;101542.78;;;12.65;100.00
42105;BME280;61464;51.472;5.712;2022-08-21T01:04:23;101551.78;;;12.71;100.00
42105;BME280;61464;51.472;5.712;2022-08-21T01:06:49;101560.06;;;12.66;100.00
42105;BME280;61464;51.472;5.712;2022-08-21T01:09:17;101556.00;;;12.63;100.00
42105;BME280;61464;51.472;5.712;2022-08-21T01:11:44;101551.22;;;12.59;100.00
42105;BME280;61464;51.472;5.712;2022-08-21T01:14:12;101553.75;;;12.51;100.00
42105;BME280;61464;51.472;5.712;2022-08-21T01:16:42;101553.63;;;12.52;100.00
42105;BME280;61464;51.472;5.712;2022-08-21T01:19:10;101552.13;;;12.50;100.00
42105;BME280;61464;51.472;5.712;2022-08-21T01:21:37;101546.41;;;12.46;100.00
42105;BME280;61464;51.472;5.712;2022-08-21T01:24:03;101553.03;;;12.40;100.00
42105;BME280;61464;51.472;5.712;2022-08-21T01:26:33;101559.81;;;12.51;100.00
42105;BME280;61464;51.472;5.712;2022-08-21T01:31:59;101554.00;;;12.39;100.00
42105;BME280;61464;51.472;5.712;2022-08-21T01:34:28;101545.94;;;12.51;100.00
42105;BME280;61464;51.472;5.712;2022-08-21T01:36:54;101559.34;;;12.56;100.00
42105;BME280;61464;51.472;5.712;2022-08-21T01:39:20;101550.38;;;12.76;100.00
42105;BME280;61464;51.472;5.712;2022-08-21T01:41:46;101553.00;;;12.58;100.00
42105;BME280;61464;51.472;5.712;2022-08-21T01:44:12;101545.19;;;12.58;100.00
42105;BME280;61464;51.472;5.712;2022-08-21T01:46:38;101538.25;;;12.41;100.00
42105;BME280;61464;51.472;5.712;2022-08-21T01:49:04;101546.50;;;12.36;100.00
42105;BME280;61464;51.472;5.712;2022-08-21T01:51:30;101549.69;;;12.30;100.00
42105;BME280;61464;51.472;5.712;2022-08-21T01:53:56;101544.59;;;12.20;100.00
42105;BME280;61464;51.472;5.712;2022-08-21T01:56:22;101552.00;;;12.33;100.00
42105;BME280;61464;51.472;5.712;2022-08-21T01:58:48;101555.81;;;12.21;100.00
42105;BME280;61464;51.472;5.712;2022-08-21T02:01:14;101554.22;;;12.28;100.00
42105;BME280;61464;51.472;5.712;2022-08-21T02:03:41;101545.41;;;12.21;100.00
42105;BME280;61464;51.472;5.712;2022-08-21T02:06:12;101529.63;;;12.22;100.00
42105;BME280;61464;51.472;5.712;2022-08-21T02:08:39;101534.19;;;12.20;100.00
42105;BME280;61464;51.472;5.712;2022-08-21T02:11:05;101541.16;;;12.20;100.00
42105;BME280;61464;51.472;5.712;2022-08-21T02:13:31;101536.19;;;12.08;100.00
42105;BME280;61464;51.472;5.712;2022-08-21T02:15:57;101546.13;;;11.95;100.00
42105;BME280;61464;51.472;5.712;2022-08-21T02:18:23;101542.28;;;11.99;100.00
42105;BME280;61464;51.472;5.712;2022-08-21T02:20:49;101531.06;;;11.99;100.00
42105;BME280;61464;51.472;5.712;2022-08-21T02:23:16;101524.22;;;11.98;100.00
42105;BME280;61464;51.472;5.712;2022-08-21T02:25:42;101518.19;;;11.97;100.00
42105;BME280;61464;51.472;5.712;2022-08-21T02:28:12;101531.50;;;11.94;100.00
42105;BME280;61464;51.472;5.712;2022-08-21T02:30:44;101520.44;;;11.92;100.00
42105;BME280;61464;51.472;5.712;2022-08-21T02:33:11;101522.50;;;11.88;100.00
42105;BME280;61464;51.472;5.712;2022-08-21T02:35:39;101519.19;;;11.86;100.00
42105;BME280;61464;51.472;5.712;2022-08-21T02:38:12;101516.75;;;11.85;100.00
42105;BME280;61464;51.472;5.712;2022-08-21T02:40:41;101509.31;;;11.72;100.00
42105;BME280;61464;51.472;5.712;2022-08-21T02:43:08;101522.44;;;11.71;100.00
42105;BME280;61464;51.472;5.712;2022-08-21T02:45:36;101522.44;;;11.71;100.00
42105;BME280;61464;51.472;5.712;2022-08-21T02:48:08;101515.81;;;11.58;100.00
42105;BME280;61464;51.472;5.712;2022-08-21T02:50:42;101509.50;;;11.43;100.00
42105;BME280;61464;51.472;5.712;2022-08-21T02:53:11;101517.34;;;11.61;100.00
42105;BME280;61464;51.472;5.712;2022-08-21T02:55:37;101504.56;;;11.40;100.00
42105;BME280;61464;51.472;5.712;2022-08-21T02:58:07;101514.28;;;11.38;100.00
42105;BME280;61464;51.472;5.712;2022-08-21T03:00:35;101519.31;;;11.49;100.00
42105;BME280;61464;51.472;5.712;2022-08-21T03:03:04;101517.97;;;11.45;100.00
42105;BME280;61464;51.472;5.712;2022-08-21T03:05:31;101517.00;;;11.46;100.00
42105;BME280;61464;51.472;5.712;2022-08-21T03:08:00;101512.84;;;11.53;100.00
42105;BME280;61464;51.472;5.712;2022-08-21T03:10:29;101519.50;;;11.38;100.00
42105;BME280;61464;51.472;5.712;2022-08-21T03:12:56;101516.47;;;11.42;100.00
42105;BME280;61464;51.472;5.712;2022-08-21T03:15:24;101529.19;;;11.45;100.00
42105;BME280;61464;51.472;5.712;2022-08-21T03:17:50;101514.97;;;11.40;100.00
42105;BME280;61464;51.472;5.712;2022-08-21T03:20:20;101512.22;;;11.41;100.00
42105;BME280;61464;51.472;5.712;2022-08-21T03:22:48;101501.97;;;11.40;100.00
42105;BME280;61464;51.472;5.712;2022-08-21T03:25:14;101510.25;;;11.53;100.00
42105;BME280;61464;51.472;5.712;2022-08-21T03:27:40;101513.88;;;11.60;100.00
42105;BME280;61464;51.472;5.712;2022-08-21T03:30:07;101507.56;;;11.45;100.00
42105;BME280;61464;51.472;5.712;2022-08-21T03:32:34;101524.28;;;11.60;100.00
42105;BME280;61464;51.472;5.712;2022-08-21T03:35:03;101516.06;;;11.65;100.00
42105;BME280;61464;51.472;5.712;2022-08-21T03:37:29;101510.38;;;11.79;100.00
42105;BME280;61464;51.472;5.712;2022-08-21T03:39:55;101508.38;;;11.91;100.00
42105;BME280;61464;51.472;5.712;2022-08-21T03:42:22;101504.69;;;11.94;100.00
42105;BME280;61464;51.472;5.712;2022-08-21T03:44:48;101516.09;;;12.01;100.00
42105;BME280;61464;51.472;5.712;2022-08-21T03:47:14;101521.03;;;12.04;100.00
42105;BME280;61464;51.472;5.712;2022-08-21T03:49:40;101524.50;;;11.95;100.00
42105;BME280;61464;51.472;5.712;2022-08-21T03:52:06;101516.44;;;11.88;100.00
42105;BME280;61464;51.472;5.712;2022-08-21T03:54:32;101516.16;;;11.91;100.00
42105;BME280;61464;51.472;5.712;2022-08-21T03:56:59;101499.66;;;11.82;100.00
42105;BME280;61464;51.472;5.712;2022-08-21T03:59:25;101522.34;;;11.90;100.00
42105;BME280;61464;51.472;5.712;2022-08-21T04:01:57;101515.44;;;11.99;100.00
42105;BME280;61464;51.472;5.712;2022-08-21T04:04:24;101513.16;;;11.96;100.00
42105;BME280;61464;51.472;5.712;2022-08-21T04:06:50;101517.22;;;11.98;100.00
42105;BME280;61464;51.472;5.712;2022-08-21T04:09:17;101511.94;;;11.90;100.00
42105;BME280;61464;51.472;5.712;2022-08-21T04:11:43;101513.47;;;11.83;100.00
42105;BME280;61464;51.472;5.712;2022-08-21T04:14:09;101513.84;;;11.88;100.00
42105;BME280;61464;51.472;5.712;2022-08-21T04:16:35;101521.28;;;11.83;100.00
42105;BME280;61464;51.472;5.712;2022-08-21T04:19:00;101511.84;;;11.82;100.00
42105;BME280;61464;51.472;5.712;2022-08-21T04:21:26;101517.91;;;11.73;100.00
42105;BME280;61464;51.472;5.712;2022-08-21T04:23:55;101507.00;;;11.69;100.00
42105;BME280;61464;51.472;5.712;2022-08-21T04:26:21;101513.47;;;11.65;100.00
42105;BME280;61464;51.472;5.712;2022-08-21T04:28:47;101505.28;;;11.60;100.00
42105;BME280;61464;51.472;5.712;2022-08-21T04:31:13;101505.38;;;11.68;100.00
42105;BME280;61464;51.472;5.712;2022-08-21T04:33:38;101509.09;;;11.65;100.00
42105;BME280;61464;51.472;5.712;2022-08-21T04:36:05;101504.81;;;11.46;100.00
42105;BME280;61464;51.472;5.712;2022-08-21T04:38:33;101503.19;;;11.45;100.00
42105;BME280;61464;51.472;5.712;2022-08-21T04:40:58;101516.72;;;11.49;100.00
42105;BME280;61464;51.472;5.712;2022-08-21T04:43:24;101519.97;;;11.51;100.00
42105;BME280;61464;51.472;5.712;2022-08-21T04:45:52;101525.47;;;11.48;100.00
42105;BME280;61464;51.472;5.712;2022-08-21T04:48:21;101523.25;;;11.53;100.00
42105;BME280;61464;51.472;5.712;2022-08-21T04:53:36;101536.72;;;11.66;100.00
42105;BME280;61464;51.472;5.712;2022-08-21T04:58:54;101530.91;;;11.73;100.00
42105;BME280;61464;51.472;5.712;2022-08-21T05:01:23;101538.00;;;11.80;100.00
42105;BME280;61464;51.472;5.712;2022-08-21T05:03:55;101533.31;;;11.84;100.00
42105;BME280;61464;51.472;5.712;2022-08-21T05:06:23;101537.81;;;11.92;100.00
42105;BME280;61464;51.472;5.712;2022-08-21T05:08:52;101544.28;;;12.05;100.00
42105;BME280;61464;51.472;5.712;2022-08-21T05:11:19;101540.50;;;12.00;100.00
42105;BME280;61464;51.472;5.712;2022-08-21T05:13:45;101542.81;;;12.21;100.00
42105;BME280;61464;51.472;5.712;2022-08-21T05:16:12;101538.34;;;12.13;100.00
42105;BME280;61464;51.472;5.712;2022-08-21T05:18:38;101539.38;;;12.20;100.00
42105;BME280;61464;51.472;5.712;2022-08-21T05:21:04;101542.63;;;12.40;100.00
42105;BME280;61464;51.472;5.712;2022-08-21T05:23:30;101533.72;;;12.43;100.00
42105;BME280;61464;51.472;5.712;2022-08-21T05:25:56;101533.75;;;12.51;100.00
42105;BME280;61464;51.472;5.712;2022-08-21T05:28:22;101545.00;;;12.52;100.00
42105;BME280;61464;51.472;5.712;2022-08-21T05:30:49;101544.44;;;12.66;100.00
42105;BME280;61464;51.472;5.712;2022-08-21T05:33:14;101540.19;;;12.65;100.00
42105;BME280;61464;51.472;5.712;2022-08-21T05:35:40;101550.00;;;12.71;100.00
42105;BME280;61464;51.472;5.712;2022-08-21T05:38:07;101551.31;;;12.75;100.00
42105;BME280;61464;51.472;5.712;2022-08-21T05:40:33;101552.31;;;13.35;99.49
42105;BME280;61464;51.472;5.712;2022-08-21T05:42:59;101561.81;;;14.27;94.15
42105;BME280;61464;51.472;5.712;2022-08-21T05:45:29;101562.63;;;14.77;89.15
42105;BME280;61464;51.472;5.712;2022-08-21T05:47:55;101568.66;;;14.45;89.21
42105;BME280;61464;51.472;5.712;2022-08-21T05:50:21;101556.56;;;13.95;91.41
42105;BME280;61464;51.472;5.712;2022-08-21T05:52:47;101571.66;;;13.66;93.41
42105;BME280;61464;51.472;5.712;2022-08-21T05:55:14;101564.41;;;13.44;95.12
42105;BME280;61464;51.472;5.712;2022-08-21T05:57:40;101563.28;;;13.46;95.29
42105;BME280;61464;51.472;5.712;2022-08-21T06:00:08;101573.19;;;13.43;95.74
42105;BME280;61464;51.472;5.712;2022-08-21T06:02:39;101565.78;;;13.56;96.03
42105;BME280;61464;51.472;5.712;2022-08-21T06:05:05;101566.47;;;13.75;95.39
42105;BME280;61464;51.472;5.712;2022-08-21T06:07:32;101555.88;;;13.76;94.54
42105;BME280;61464;51.472;5.712;2022-08-21T06:09:57;101571.72;;;13.91;94.23
42105;BME280;61464;51.472;5.712;2022-08-21T06:12:23;101569.66;;;14.11;93.87
42105;BME280;61464;51.472;5.712;2022-08-21T06:14:50;101569.78;;;14.92;90.67
42105;BME280;61464;51.472;5.712;2022-08-21T06:17:17;101561.69;;;15.88;85.43
42105;BME280;61464;51.472;5.712;2022-08-21T06:19:43;101563.81;;;16.69;80.93
42105;BME280;61464;51.472;5.712;2022-08-21T06:22:09;101568.38;;;16.37;79.72
42105;BME280;61464;51.472;5.712;2022-08-21T06:24:35;101557.38;;;15.64;83.09
42105;BME280;61464;51.472;5.712;2022-08-21T06:27:06;101565.75;;;15.60;84.63
42105;BME280;61464;51.472;5.712;2022-08-21T06:29:34;101569.31;;;15.27;86.08
42105;BME280;61464;51.472;5.712;2022-08-21T06:32:01;101568.09;;;15.86;84.82
42105;BME280;61464;51.472;5.712;2022-08-21T06:34:27;101558.78;;;15.83;83.85
42105;BME280;61464;51.472;5.712;2022-08-21T06:36:53;101567.50;;;15.99;83.02
42105;BME280;61464;51.472;5.712;2022-08-21T06:39:19;101560.47;;;15.37;85.59
42105;BME280;61464;51.472;5.712;2022-08-21T06:41:45;101567.59;;;15.51;86.47
42105;BME280;61464;51.472;5.712;2022-08-21T06:44:10;101570.69;;;15.55;86.61
42105;BME280;61464;51.472;5.712;2022-08-21T06:46:37;101565.19;;;15.41;86.52
42105;BME280;61464;51.472;5.712;2022-08-21T06:49:03;101553.94;;;15.72;86.24
42105;BME280;61464;51.472;5.712;2022-08-21T06:51:29;101572.34;;;16.10;84.65
42105;BME280;61464;51.472;5.712;2022-08-21T06:53:55;101553.81;;;16.12;84.03
42105;BME280;61464;51.472;5.712;2022-08-21T06:56:21;101567.69;;;16.20;83.70
42105;BME280;61464;51.472;5.712;2022-08-21T06:58:47;101575.38;;;16.60;82.91
42105;BME280;61464;51.472;5.712;2022-08-21T07:01:13;101582.78;;;16.56;81.98
42105;BME280;61464;51.472;5.712;2022-08-21T07:03:42;101577.44;;;16.64;82.09
42105;BME280;61464;51.472;5.712;2022-08-21T07:06:10;101576.56;;;16.72;81.71
42105;BME280;61464;51.472;5.712;2022-08-21T07:08:37;101579.13;;;16.42;83.73
42105;BME280;61464;51.472;5.712;2022-08-21T07:11:20;101573.78;;;16.36;85.00
42105;BME280;61464;51.472;5.712;2022-08-21T07:13:46;101568.72;;;16.11;85.61
42105;BME280;61464;51.472;5.712;2022-08-21T07:16:12;101563.66;;;16.09;86.37
42105;BME280;61464;51.472;5.712;2022-08-21T07:18:38;101568.34;;;16.22;86.28
42105;BME280;61464;51.472;5.712;2022-08-21T07:21:06;101575.75;;;16.34;86.07
42105;BME280;61464;51.472;5.712;2022-08-21T07:23:42;101576.84;;;16.77;84.70
42105;BME280;61464;51.472;5.712;2022-08-21T07:26:11;101562.13;;;17.06;83.18
42105;BME280;61464;51.472;5.712;2022-08-21T07:28:37;101567.38;;;16.91;83.66
42105;BME280;61464;51.472;5.712;2022-08-21T07:31:04;101567.66;;;17.26;82.91
42105;BME280;61464;51.472;5.712;2022-08-21T07:33:33;101560.56;;;17.26;82.52
42105;BME280;61464;51.472;5.712;2022-08-21T07:36:00;101560.88;;;17.53;82.00
42105;BME280;61464;51.472;5.712;2022-08-21T07:38:26;101555.16;;;17.64;81.54
42105;BME280;61464;51.472;5.712;2022-08-21T07:40:55;101562.81;;;17.81;81.07
42105;BME280;61464;51.472;5.712;2022-08-21T07:43:22;101554.91;;;17.96;80.73
42105;BME280;61464;51.472;5.712;2022-08-21T07:45:48;101562.63;;;17.82;81.22
42105;BME280;61464;51.472;5.712;2022-08-21T07:48:17;101560.16;;;17.59;82.46
42105;BME280;61464;51.472;5.712;2022-08-21T07:50:43;101552.94;;;17.46;82.99
42105;BME280;61464;51.472;5.712;2022-08-21T07:53:09;101565.25;;;17.46;83.66
42105;BME280;61464;51.472;5.712;2022-08-21T07:55:35;101564.19;;;17.40;84.14
42105;BME280;61464;51.472;5.712;2022-08-21T07:58:01;101566.00;;;17.40;84.39
42105;BME280;61464;51.472;5.712;2022-08-21T08:00:28;101554.28;;;17.57;84.11
42105;BME280;61464;51.472;5.712;2022-08-21T08:02:55;101560.94;;;17.75;83.59
42105;BME280;61464;51.472;5.712;2022-08-21T08:05:26;101557.91;;;17.78;83.69
42105;BME280;61464;51.472;5.712;2022-08-21T08:07:52;101559.66;;;17.85;82.84
42105;BME280;61464;51.472;5.712;2022-08-21T08:10:19;101557.47;;;17.89;82.76
42105;BME280;61464;51.472;5.712;2022-08-21T08:12:45;101562.09;;;17.87;82.53
42105;BME280;61464;51.472;5.712;2022-08-21T08:15:15;101569.59;;;17.90;82.84
42105;BME280;61464;51.472;5.712;2022-08-21T08:17:41;101558.47;;;18.09;82.87
42105;BME280;61464;51.472;5.712;2022-08-21T08:20:10;101560.28;;;18.09;82.06
42105;BME280;61464;51.472;5.712;2022-08-21T08:22:38;101567.41;;;18.15;82.38
42105;BME280;61464;51.472;5.712;2022-08-21T08:25:07;101563.78;;;18.16;81.87
42105;BME280;61464;51.472;5.712;2022-08-21T08:27:33;101568.09;;;18.24;81.47
42105;BME280;61464;51.472;5.712;2022-08-21T08:29:59;101564.28;;;18.26;81.26
42105;BME280;61464;51.472;5.712;2022-08-21T08:32:25;101556.19;;;18.28;80.30
42105;BME280;61464;51.472;5.712;2022-08-21T08:34:51;101565.56;;;18.37;80.28
42105;BME280;61464;51.472;5.712;2022-08-21T08:37:19;101558.03;;;18.27;80.66
42105;BME280;61464;51.472;5.712;2022-08-21T08:39:46;101561.03;;;18.53;80.14
42105;BME280;61464;51.472;5.712;2022-08-21T08:42:33;101548.34;;;18.56;78.78
42105;BME280;61464;51.472;5.712;2022-08-21T08:45:11;101549.16;;;18.63;78.81
42105;BME280;61464;51.472;5.712;2022-08-21T08:47:43;101539.91;;;18.67;78.75
42105;BME280;61464;51.472;5.712;2022-08-21T08:50:42;101536.22;;;18.90;78.63
42105;BME280;61464;51.472;5.712;2022-08-21T08:53:23;101525.44;;;19.20;76.19
42105;BME280;61464;51.472;5.712;2022-08-21T08:55:53;101528.31;;;19.38;75.30
42105;BME280;61464;51.472;5.712;2022-08-21T08:58:33;101532.81;;;19.51;74.57
42105;BME280;61464;51.472;5.712;2022-08-21T09:01:09;101527.91;;;19.35;74.45
42105;BME280;61464;51.472;5.712;2022-08-21T09:03:37;101528.44;;;19.23;74.57
42105;BME280;61464;51.472;5.712;2022-08-21T09:12:06;101522.13;;;19.73;70.73
42105;BME280;61464;51.472;5.712;2022-08-21T09:21:08;101520.75;;;20.10;67.70
42105;BME280;61464;51.472;5.712;2022-08-21T09:26:36;101520.53;;;20.25;68.02
42105;BME280;61464;51.472;5.712;2022-08-21T09:29:08;101515.84;;;20.40;65.99
42105;BME280;61464;51.472;5.712;2022-08-21T09:31:36;101520.31;;;20.40;66.31
42105;BME280;61464;51.472;5.712;2022-08-21T09:34:09;101511.78;;;20.44;66.01
42105;BME280;61464;51.472;5.712;2022-08-21T09:36:42;101519.91;;;20.49;66.20
42105;BME280;61464;51.472;5.712;2022-08-21T09:39:11;101517.09;;;20.18;67.26
42105;BME280;61464;51.472;5.712;2022-08-21T09:41:39;101523.97;;;20.39;67.15
42105;BME280;61464;51.472;5.712;2022-08-21T09:44:07;101517.47;;;20.28;67.10
42105;BME280;61464;51.472;5.712;2022-08-21T09:46:34;101515.06;;;20.26;66.70
42105;BME280;61464;51.472;5.712;2022-08-21T09:49:03;101521.94;;;20.41;67.12
42105;BME280;61464;51.472;5.712;2022-08-21T09:51:34;101529.84;;;20.67;65.21
42105;BME280;61464;51.472;5.712;2022-08-21T09:56:39;101523.31;;;20.77;64.30
42105;BME280;61464;51.472;5.712;2022-08-21T09:59:32;101527.50;;;21.04;64.43
42105;BME280;61464;51.472;5.712;2022-08-21T10:02:01;101516.91;;;21.11;63.84
42105;BME280;61464;51.472;5.712;2022-08-21T10:04:30;101527.31;;;20.93;64.75
42105;BME280;61464;51.472;5.712;2022-08-21T10:07:12;101521.28;;;20.79;65.00
42105;BME280;61464;51.472;5.712;2022-08-21T10:09:39;101517.88;;;20.58;64.59
42105;BME280;61464;51.472;5.712;2022-08-21T10:12:22;101503.69;;;20.59;64.68
42105;BME280;61464;51.472;5.712;2022-08-21T10:18:06;101503.22;;;21.66;61.08
42105;BME280;61464;51.472;5.712;2022-08-21T10:20:47;101515.78;;;22.21;59.94
42105;BME280;61464;51.472;5.712;2022-08-21T10:23:37;101525.41;;;22.59;58.37
42105;BME280;61464;51.472;5.712;2022-08-21T10:35:32;101522.28;;;21.29;61.88
42105;BME280;61464;51.472;5.712;2022-08-21T10:47:00;101514.00;;;21.89;58.50
42105;BME280;61464;51.472;5.712;2022-08-21T10:55:26;101511.31;;;22.21;56.72
42105;BME280;61464;51.472;5.712;2022-08-21T10:58:09;101516.28;;;22.36;56.68
42105;BME280;61464;51.472;5.712;2022-08-21T11:00:49;101517.75;;;22.07;58.27
42105;BME280;61464;51.472;5.712;2022-08-21T11:03:39;101513.34;;;22.44;56.85
42105;BME280;61464;51.472;5.712;2022-08-21T11:08:46;101506.00;;;22.46;55.52
42105;BME280;61464;51.472;5.712;2022-08-21T11:11:46;101517.09;;;22.74;54.58
42105;BME280;61464;51.472;5.712;2022-08-21T11:17:13;101519.25;;;22.83;52.84
42105;BME280;61464;51.472;5.712;2022-08-21T11:19:56;101505.72;;;23.10;53.40
42105;BME280;61464;51.472;5.712;2022-08-21T11:22:41;101509.94;;;22.37;54.48
42105;BME280;61464;51.472;5.712;2022-08-21T11:28:00;101497.81;;;23.22;52.89
42105;BME280;61464;51.472;5.712;2022-08-21T11:30:47;101498.75;;;23.69;52.20
42105;BME280;61464;51.472;5.712;2022-08-21T11:36:44;101509.63;;;22.52;53.54
42105;BME280;61464;51.472;5.712;2022-08-21T11:45:44;101500.56;;;22.41;53.29
42105;BME280;61464;51.472;5.712;2022-08-21T11:51:48;101487.19;;;22.73;53.92
42105;BME280;61464;51.472;5.712;2022-08-21T11:54:33;101499.38;;;23.11;52.54
42105;BME280;61464;51.472;5.712;2022-08-21T11:57:23;101501.63;;;23.68;51.91
42105;BME280;61464;51.472;5.712;2022-08-21T12:00:11;101504.66;;;23.41;52.12
42105;BME280;61464;51.472;5.712;2022-08-21T12:02:48;101503.31;;;23.50;51.32
42105;BME280;61464;51.472;5.712;2022-08-21T12:05:30;101501.81;;;22.76;52.89
42105;BME280;61464;51.472;5.712;2022-08-21T12:08:30;101505.66;;;23.28;51.97
42105;BME280;61464;51.472;5.712;2022-08-21T12:16:34;101509.78;;;23.66;49.48
42105;BME280;61464;51.472;5.712;2022-08-21T12:24:40;101509.75;;;24.67;44.96
42105;BME280;61464;51.472;5.712;2022-08-21T12:27:29;101512.25;;;24.86;45.95
42105;BME280;61464;51.472;5.712;2022-08-21T12:30:18;101508.75;;;24.85;45.07
42105;BME280;61464;51.472;5.712;2022-08-21T12:33:18;101506.06;;;24.33;46.26
42105;BME280;61464;51.472;5.712;2022-08-21T12:35:47;101499.03;;;23.80;48.03
42105;BME280;61464;51.472;5.712;2022-08-21T12:38:26;101510.81;;;23.54;46.25
42105;BME280;61464;51.472;5.712;2022-08-21T12:41:04;101501.31;;;23.34;46.54
42105;BME280;61464;51.472;5.712;2022-08-21T12:43:57;101500.78;;;23.14;46.77
42105;BME280;61464;51.472;5.712;2022-08-21T12:46:43;101499.06;;;23.19;46.72
42105;BME280;61464;51.472;5.712;2022-08-21T12:49:43;101506.75;;;23.81;46.41
42105;BME280;61464;51.472;5.712;2022-08-21T12:52:33;101497.81;;;23.64;46.53
42105;BME280;61464;51.472;5.712;2022-08-21T12:55:00;101490.88;;;23.51;46.00
42105;BME280;61464;51.472;5.712;2022-08-21T12:57:29;101497.97;;;23.39;46.96
42105;BME280;61464;51.472;5.712;2022-08-21T13:00:02;101482.81;;;23.58;46.66
42105;BME280;61464;51.472;5.712;2022-08-21T13:02:36;101491.31;;;24.02;46.32
42105;BME280;61464;51.472;5.712;2022-08-21T13:05:07;101500.81;;;23.67;46.71
42105;BME280;61464;51.472;5.712;2022-08-21T13:07:36;101492.78;;;23.02;47.58
42105;BME280;61464;51.472;5.712;2022-08-21T13:10:22;101492.78;;;22.65;48.72
42105;BME280;61464;51.472;5.712;2022-08-21T13:12:49;101478.50;;;23.33;48.38
42105;BME280;61464;51.472;5.712;2022-08-21T13:15:28;101485.44;;;23.88;46.35
42105;BME280;61464;51.472;5.712;2022-08-21T13:17:54;101487.28;;;24.23;45.51
42105;BME280;61464;51.472;5.712;2022-08-21T13:20:33;101487.94;;;24.42;44.15
42105;BME280;61464;51.472;5.712;2022-08-21T13:23:02;101487.28;;;23.87;44.61
42105;BME280;61464;51.472;5.712;2022-08-21T13:25:35;101488.56;;;24.08;45.65
42105;BME280;61464;51.472;5.712;2022-08-21T13:28:10;101483.56;;;24.24;44.96
42105;BME280;61464;51.472;5.712;2022-08-21T13:30:52;101497.28;;;24.44;45.06
42105;BME280;61464;51.472;5.712;2022-08-21T13:33:22;101491.56;;;24.12;45.43
42105;BME280;61464;51.472;5.712;2022-08-21T13:36:07;101493.59;;;24.45;45.37
42105;BME280;61464;51.472;5.712;2022-08-21T13:38:35;101493.31;;;24.82;43.69
42105;BME280;61464;51.472;5.712;2022-08-21T13:43:56;101478.63;;;23.92;44.70
42105;BME280;61464;51.472;5.712;2022-08-21T13:46:26;101486.22;;;24.59;44.63
42105;BME280;61464;51.472;5.712;2022-08-21T13:48:54;101467.09;;;24.86;42.47
42105;BME280;61464;51.472;5.712;2022-08-21T13:51:21;101477.31;;;24.42;42.88
42105;BME280;61464;51.472;5.712;2022-08-21T13:53:51;101476.69;;;25.04;42.24
42105;BME280;61464;51.472;5.712;2022-08-21T13:56:32;101482.66;;;24.06;43.81
42105;BME280;61464;51.472;5.712;2022-08-21T13:59:00;101484.56;;;24.70;43.26
42105;BME280;61464;51.472;5.712;2022-08-21T14:02:08;101470.88;;;24.26;43.54
42105;BME280;61464;51.472;5.712;2022-08-21T14:04:42;101461.06;;;23.67;45.19
42105;BME280;61464;51.472;5.712;2022-08-21T14:07:29;101472.63;;;23.97;44.86
42105;BME280;61464;51.472;5.712;2022-08-21T14:10:07;101471.72;;;24.15;45.29
42105;BME280;61464;51.472;5.712;2022-08-21T14:12:57;101471.78;;;24.96;43.71
42105;BME280;61464;51.472;5.712;2022-08-21T14:15:27;101464.75;;;24.49;44.20
42105;BME280;61464;51.472;5.712;2022-08-21T14:17:55;101467.22;;;24.27;44.32
42105;BME280;61464;51.472;5.712;2022-08-21T14:20:36;101465.47;;;24.33;45.22
42105;BME280;61464;51.472;5.712;2022-08-21T14:23:02;101460.78;;;23.45;47.52
42105;BME280;61464;51.472;5.712;2022-08-21T14:25:41;101462.25;;;23.95;46.23
42105;BME280;61464;51.472;5.712;2022-08-21T14:28:48;101451.63;;;24.30;45.87
42105;BME280;61464;51.472;5.712;2022-08-21T14:31:21;101458.75;;;24.54;45.30